createdAt,value
2019-03-17T00:00:13.060Z,60.08
2019-03-17T00:02:42.239Z,60.27
2019-03-17T00:05:11.685Z,60.02
2019-03-17T00:07:40.871Z,60.04
2019-03-17T00:10:10.125Z,60.04
2019-03-17T00:12:39.421Z,59.88
2019-03-17T00:15:08.687Z,59.55
2019-03-17T00:17:37.875Z,59.93
2019-03-17T00:20:07.302Z,59.88
2019-03-17T00:22:37.251Z,59.91
2019-03-17T00:25:09.729Z,60.02
2019-03-17T00:27:37.364Z,60.04
2019-03-17T00:30:08.819Z,60.14
2019-03-17T00:32:37.963Z,60.51
2019-03-17T00:35:07.309Z,60.21
2019-03-17T00:37:36.466Z,60.11
2019-03-17T00:40:06.147Z,60.38
2019-03-17T00:42:35.317Z,60.12
2019-03-17T00:45:04.941Z,60.32
2019-03-17T00:47:34.085Z,60.49
2019-03-17T00:50:03.255Z,60.47
2019-03-17T00:52:32.517Z,60.43
2019-03-17T00:55:01.686Z,60.44
2019-03-17T00:57:30.867Z,60.91
2019-03-17T01:00:00.457Z,60.68
2019-03-17T01:02:29.671Z,60.36
2019-03-17T01:04:58.875Z,60.55
2019-03-17T01:07:28.253Z,60.19
2019-03-17T01:09:57.449Z,60.56
2019-03-17T01:12:26.628Z,60.52
2019-03-17T01:14:55.845Z,60.46
2019-03-17T01:17:25.035Z,60.46
2019-03-17T01:19:54.238Z,59.93
2019-03-17T01:22:23.529Z,60.34
2019-03-17T01:24:52.704Z,60.60
2019-03-17T01:27:21.913Z,60.49
2019-03-17T01:29:51.138Z,60.61
2019-03-17T01:32:20.333Z,60.39
2019-03-17T01:34:49.526Z,60.17
2019-03-17T01:37:18.734Z,60.71
2019-03-17T01:39:47.920Z,60.99
2019-03-17T01:42:18.538Z,60.93
2019-03-17T01:44:47.924Z,60.49
2019-03-17T01:47:17.102Z,60.79
2019-03-17T01:49:46.318Z,60.48
2019-03-17T01:52:15.570Z,60.19
2019-03-17T01:54:44.766Z,60.17
2019-03-17T01:57:14.117Z,60.23
2019-03-17T01:59:43.306Z,60.31
2019-03-17T02:02:12.486Z,60.17
2019-03-17T02:04:41.711Z,60.31
2019-03-17T02:07:10.866Z,60.46
2019-03-17T02:09:40.066Z,60.47
2019-03-17T02:12:09.276Z,60.75
2019-03-17T02:14:38.463Z,60.50
2019-03-17T02:17:07.673Z,60.45
2019-03-17T02:19:36.839Z,60.58
2019-03-17T02:22:06.075Z,60.75
2019-03-17T02:24:37.048Z,60.32
2019-03-17T02:27:06.277Z,59.81
2019-03-17T02:29:35.475Z,60.20
2019-03-17T02:32:04.633Z,59.85
2019-03-17T02:34:33.827Z,59.74
2019-03-17T02:37:03.017Z,60.10
2019-03-17T02:39:32.215Z,59.66
2019-03-17T02:42:01.422Z,59.88
2019-03-17T02:44:32.056Z,59.97
2019-03-17T02:47:01.224Z,59.54
2019-03-17T02:49:30.397Z,59.93
2019-03-17T02:51:59.582Z,60.26
2019-03-17T02:54:28.780Z,59.98
2019-03-17T02:56:58.072Z,59.92
2019-03-17T02:59:27.211Z,60.38
2019-03-17T03:01:56.678Z,60.38
2019-03-17T03:04:25.844Z,60.71
2019-03-17T03:06:55.320Z,60.55
2019-03-17T03:09:24.497Z,60.89
2019-03-17T03:11:53.738Z,60.41
2019-03-17T03:14:22.915Z,60.53
2019-03-17T03:16:52.117Z,60.55
2019-03-17T03:19:21.303Z,60.70
2019-03-17T03:21:50.490Z,60.91
2019-03-17T03:24:19.648Z,60.26
2019-03-17T03:26:48.848Z,60.42
2019-03-17T03:29:18.050Z,60.47
2019-03-17T03:31:47.264Z,60.52
2019-03-17T03:34:16.439Z,60.52
2019-03-17T03:36:45.662Z,60.17
2019-03-17T03:39:14.834Z,60.59
2019-03-17T03:41:44.016Z,60.30
2019-03-17T03:44:13.183Z,59.93
2019-03-17T03:46:42.355Z,60.01
2019-03-17T03:49:11.566Z,59.85
2019-03-17T03:51:40.760Z,60.02
2019-03-17T03:54:09.949Z,59.71
2019-03-17T03:56:39.173Z,60.17
2019-03-17T03:59:08.453Z,60.03
2019-03-17T04:01:37.643Z,60.36
2019-03-17T04:04:06.969Z,60.60
2019-03-17T04:06:36.174Z,60.13
2019-03-17T04:09:07.574Z,59.78
2019-03-17T04:11:36.708Z,59.69
2019-03-17T04:14:05.910Z,59.94
2019-03-17T04:16:35.073Z,59.78
2019-03-17T04:19:04.376Z,59.43
2019-03-17T04:21:33.565Z,59.78
2019-03-17T04:24:02.772Z,59.29
2019-03-17T04:26:32.049Z,59.71
2019-03-17T04:29:01.253Z,59.78
2019-03-17T04:31:30.436Z,60.07
2019-03-17T04:33:59.600Z,59.91
2019-03-17T04:36:39.556Z,60.16
2019-03-17T04:38:59.708Z,59.86
2019-03-17T04:41:28.892Z,59.72
2019-03-17T04:43:58.057Z,59.70
2019-03-17T04:46:27.242Z,59.85
2019-03-17T04:48:56.532Z,59.99
2019-03-17T04:51:25.685Z,60.28
2019-03-17T04:53:54.851Z,59.83
2019-03-17T04:56:24.052Z,59.72
2019-03-17T04:58:53.238Z,59.57
2019-03-17T05:01:22.435Z,59.55
2019-03-17T05:03:51.601Z,59.46
2019-03-17T05:06:20.783Z,59.20
2019-03-17T05:08:49.997Z,59.75
2019-03-17T05:11:19.182Z,58.81
2019-03-17T05:13:48.377Z,58.94
2019-03-17T05:16:17.549Z,59.08
2019-03-17T05:18:46.701Z,59.10
2019-03-17T05:21:15.876Z,59.28
2019-03-17T05:23:45.037Z,59.53
2019-03-17T05:26:14.261Z,59.63
2019-03-17T05:28:43.436Z,59.76
2019-03-17T05:31:12.771Z,59.76
2019-03-17T05:33:41.944Z,59.59
2019-03-17T05:36:11.105Z,59.99
2019-03-17T05:38:40.285Z,60.16
2019-03-17T05:41:09.503Z,59.77
2019-03-17T05:43:38.734Z,59.86
2019-03-17T05:46:07.902Z,60.13
2019-03-17T05:48:37.085Z,60.30
2019-03-17T05:51:06.290Z,60.11
2019-03-17T05:53:35.480Z,60.30
2019-03-17T05:56:04.666Z,60.20
2019-03-17T05:58:33.834Z,60.28
2019-03-17T06:01:03.020Z,60.42
2019-03-17T06:03:32.202Z,60.46
2019-03-17T06:06:01.388Z,60.42
2019-03-17T06:08:33.497Z,60.58
2019-03-17T06:11:01.520Z,60.41
2019-03-17T06:13:30.719Z,60.62
2019-03-17T06:16:03.026Z,60.49
2019-03-17T06:18:32.209Z,60.77
2019-03-17T06:21:01.415Z,60.78
2019-03-17T06:23:30.609Z,60.25
2019-03-17T06:25:59.797Z,60.50
2019-03-17T06:28:29.015Z,60.22
2019-03-17T06:30:58.228Z,60.46
2019-03-17T06:33:27.431Z,60.55
2019-03-17T06:35:56.623Z,61.21
2019-03-17T06:38:25.823Z,61.88
2019-03-17T06:40:55.177Z,62.82
2019-03-17T06:43:24.354Z,62.96
2019-03-17T06:45:53.539Z,63.38
2019-03-17T06:48:22.736Z,63.29
2019-03-17T06:50:51.922Z,63.05
2019-03-17T06:53:21.126Z,63.55
2019-03-17T06:55:50.370Z,63.24
2019-03-17T06:58:19.568Z,63.50
2019-03-17T07:00:48.730Z,63.26
2019-03-17T07:03:17.956Z,63.44
2019-03-17T07:05:47.123Z,63.50
2019-03-17T07:08:16.320Z,63.68
2019-03-17T07:10:45.522Z,63.86
2019-03-17T07:13:14.770Z,64.28
2019-03-17T07:15:43.946Z,64.67
2019-03-17T07:18:13.137Z,64.90
2019-03-17T07:20:42.310Z,65.21
2019-03-17T07:23:11.539Z,65.92
2019-03-17T07:25:40.718Z,66.16
2019-03-17T07:28:09.939Z,66.52
2019-03-17T07:30:39.073Z,66.67
2019-03-17T07:33:08.272Z,67.61
2019-03-17T07:35:37.847Z,68.28
2019-03-17T07:38:07.075Z,68.18
2019-03-17T07:40:36.301Z,68.69
2019-03-17T07:43:05.603Z,68.84
2019-03-17T07:45:34.787Z,69.64
2019-03-17T07:48:04.097Z,69.83
2019-03-17T07:50:33.301Z,69.57
2019-03-17T07:53:02.501Z,69.82
2019-03-17T07:55:31.727Z,70.08
2019-03-17T07:58:00.893Z,70.40
2019-03-17T08:00:32.118Z,70.17
2019-03-17T08:03:01.008Z,69.80
2019-03-17T08:05:30.293Z,69.82
2019-03-17T08:08:08.755Z,70.04
2019-03-17T08:10:30.374Z,70.01
2019-03-17T08:12:59.550Z,69.63
2019-03-17T08:15:28.742Z,69.11
2019-03-17T08:17:57.927Z,69.67
2019-03-17T08:20:27.314Z,69.24
2019-03-17T08:22:56.512Z,69.19
2019-03-17T08:25:25.737Z,69.46
2019-03-17T08:27:54.914Z,69.00
2019-03-17T08:30:24.191Z,68.91
2019-03-17T08:32:53.446Z,69.12
2019-03-17T08:35:22.707Z,69.03
2019-03-17T08:37:51.873Z,69.93
2019-03-17T08:40:21.103Z,70.26
2019-03-17T08:42:50.432Z,70.57
2019-03-17T08:45:19.648Z,70.75
2019-03-17T08:47:57.831Z,71.17
2019-03-17T08:50:19.873Z,70.98
2019-03-17T08:52:49.072Z,71.47
2019-03-17T08:55:18.321Z,71.20
2019-03-17T08:57:47.495Z,71.82
2019-03-17T09:00:16.712Z,71.76
2019-03-17T09:02:46.008Z,71.74
2019-03-17T09:05:15.205Z,71.97
2019-03-17T09:07:44.399Z,72.28
2019-03-17T09:10:13.769Z,72.69
2019-03-17T09:12:42.948Z,73.05
2019-03-17T09:15:12.417Z,72.51
2019-03-17T09:17:41.627Z,72.78
2019-03-17T09:20:11.386Z,71.95
2019-03-17T09:22:40.618Z,68.83
2019-03-17T09:25:10.374Z,68.48
2019-03-17T09:27:39.886Z,69.18
2019-03-17T09:30:11.073Z,69.27
2019-03-17T09:32:40.415Z,69.37
2019-03-17T09:35:09.931Z,69.65
2019-03-17T09:37:39.284Z,69.60
2019-03-17T09:40:09.387Z,69.97
2019-03-17T09:42:38.624Z,70.17
2019-03-17T09:45:08.428Z,69.36
2019-03-17T09:47:37.616Z,68.03
2019-03-17T09:50:08.185Z,66.72
2019-03-17T09:52:40.590Z,66.34
2019-03-17T09:55:10.229Z,66.82
2019-03-17T09:57:39.447Z,66.04
2019-03-17T10:00:10.292Z,66.43
2019-03-17T10:02:39.672Z,66.09
2019-03-17T10:05:09.811Z,66.63
2019-03-17T10:07:39.109Z,66.91
2019-03-17T10:10:09.833Z,66.17
2019-03-17T10:12:39.147Z,66.46
2019-03-17T10:15:11.112Z,66.04
2019-03-17T10:17:40.351Z,66.41
2019-03-17T10:20:12.181Z,66.51
2019-03-17T10:22:41.458Z,66.38
2019-03-17T10:25:11.063Z,66.11
2019-03-17T10:27:40.488Z,66.19
2019-03-17T10:30:11.566Z,65.75
2019-03-17T10:32:40.813Z,65.08
2019-03-17T10:35:10.245Z,65.36
2019-03-17T10:37:39.455Z,65.47
2019-03-17T10:40:11.649Z,65.26
2019-03-17T10:42:40.856Z,65.49
2019-03-17T10:45:10.667Z,64.29
2019-03-17T10:47:39.880Z,63.93
2019-03-17T10:50:11.338Z,62.98
2019-03-17T10:52:40.536Z,62.11
2019-03-17T10:55:10.874Z,61.99
2019-03-17T10:57:40.101Z,61.24
2019-03-17T11:00:12.147Z,60.60
2019-03-17T11:02:41.361Z,60.63
2019-03-17T11:05:11.355Z,59.79
2019-03-17T11:07:40.583Z,60.29
2019-03-17T11:10:12.651Z,59.77
2019-03-17T11:12:41.865Z,60.70
2019-03-17T11:15:12.968Z,59.23
2019-03-17T11:17:42.194Z,60.41
2019-03-17T11:20:11.557Z,60.31
2019-03-17T11:22:40.773Z,60.59
2019-03-17T11:25:10.179Z,60.46
2019-03-17T11:27:39.435Z,60.98
2019-03-17T11:30:12.155Z,60.58
2019-03-17T11:32:41.388Z,60.26
2019-03-17T11:35:10.815Z,60.50
2019-03-17T11:37:40.090Z,60.61
2019-03-17T11:40:10.854Z,60.33
2019-03-17T11:42:40.321Z,59.59
2019-03-17T11:45:11.747Z,59.69
2019-03-17T11:47:40.968Z,59.94
2019-03-17T11:50:13.345Z,59.71
2019-03-17T11:52:42.636Z,59.06
2019-03-17T11:55:11.948Z,58.75
2019-03-17T11:57:41.838Z,57.77
2019-03-17T12:00:13.148Z,59.63
2019-03-17T12:02:42.390Z,59.22
2019-03-17T12:05:12.062Z,59.47
2019-03-17T12:07:41.304Z,59.59
2019-03-17T12:10:12.309Z,58.94
2019-03-17T12:12:41.475Z,60.34
2019-03-17T12:15:12.980Z,60.12
2019-03-17T12:17:42.290Z,60.27
2019-03-17T12:20:11.916Z,60.83
2019-03-17T12:22:41.179Z,61.08
2019-03-17T12:25:11.810Z,60.19
2019-03-17T12:27:41.024Z,60.46
2019-03-17T12:30:15.228Z,59.98
2019-03-17T12:32:44.452Z,58.98
2019-03-17T12:35:13.677Z,59.42
2019-03-17T12:37:42.944Z,57.70
2019-03-17T12:40:12.223Z,58.03
2019-03-17T12:42:41.581Z,57.86
2019-03-17T12:45:10.911Z,59.06
2019-03-17T12:47:40.156Z,59.62
2019-03-17T12:50:10.148Z,59.53
2019-03-17T12:52:39.518Z,60.07
2019-03-17T12:55:08.842Z,59.65
2019-03-17T12:57:38.070Z,59.71
2019-03-17T13:00:09.603Z,59.47
2019-03-17T13:02:38.841Z,59.19
2019-03-17T13:05:08.525Z,59.51
2019-03-17T13:07:37.991Z,58.74
2019-03-17T13:10:15.649Z,59.07
2019-03-17T13:12:40.858Z,59.79
2019-03-17T13:15:10.502Z,59.15
2019-03-17T13:17:39.926Z,58.87
2019-03-17T13:20:10.434Z,59.79
2019-03-17T13:22:43.370Z,59.31
2019-03-17T13:25:16.158Z,58.95
2019-03-17T13:27:45.499Z,58.54
2019-03-17T13:30:14.801Z,58.42
2019-03-17T13:32:44.180Z,59.21
2019-03-17T13:35:13.830Z,60.95
2019-03-17T13:37:43.450Z,61.38
2019-03-17T13:40:13.440Z,61.66
2019-03-17T13:42:42.881Z,60.32
2019-03-17T13:45:13.091Z,60.21
2019-03-17T13:47:42.472Z,60.76
2019-03-17T13:50:13.891Z,61.04
2019-03-17T13:52:43.127Z,61.21
2019-03-17T13:55:12.841Z,61.02
2019-03-17T13:57:43.340Z,61.99
2019-03-17T14:00:14.444Z,61.82
2019-03-17T14:02:44.142Z,61.91
2019-03-17T14:05:14.497Z,62.79
2019-03-17T14:07:43.610Z,63.27
2019-03-17T14:10:15.394Z,64.01
2019-03-17T14:12:44.529Z,63.71
2019-03-17T14:15:14.529Z,63.53
2019-03-17T14:17:43.947Z,62.15
2019-03-17T14:20:15.926Z,62.93
2019-03-17T14:22:45.283Z,61.89
2019-03-17T14:25:16.955Z,61.35
2019-03-17T14:27:46.586Z,60.56
2019-03-17T14:30:16.631Z,58.68
2019-03-17T14:32:45.844Z,59.27
2019-03-17T14:35:15.403Z,58.35
2019-03-17T14:37:44.906Z,57.92
2019-03-17T14:40:14.415Z,58.13
2019-03-17T14:42:43.649Z,57.91
2019-03-17T14:45:14.202Z,58.16
2019-03-17T14:47:43.549Z,57.71
2019-03-17T14:50:15.161Z,57.18
2019-03-17T14:52:44.550Z,57.82
2019-03-17T14:55:14.085Z,56.45
2019-03-17T14:57:43.571Z,57.00
2019-03-17T15:00:17.208Z,58.21
2019-03-17T15:02:46.834Z,59.32
2019-03-17T15:05:16.917Z,61.06
2019-03-17T15:07:46.135Z,61.28
2019-03-17T15:10:17.102Z,62.59
2019-03-17T15:12:46.539Z,62.65
2019-03-17T15:15:16.734Z,62.78
2019-03-17T15:17:49.422Z,63.44
2019-03-17T15:20:19.502Z,63.58
2019-03-17T15:22:49.357Z,63.04
2019-03-17T15:25:18.930Z,63.36
2019-03-17T15:27:48.942Z,63.28
2019-03-17T15:30:22.806Z,63.44
2019-03-17T15:32:52.254Z,63.50
2019-03-17T15:35:21.620Z,63.61
2019-03-17T15:37:51.028Z,63.62
2019-03-17T15:40:20.357Z,63.50
2019-03-17T15:42:49.607Z,63.69
2019-03-17T15:45:19.057Z,63.12
2019-03-17T15:47:48.516Z,63.62
2019-03-17T15:50:18.156Z,63.14
2019-03-17T15:52:47.720Z,63.49
2019-03-17T15:55:16.963Z,62.66
2019-03-17T15:57:46.215Z,63.12
2019-03-17T16:00:25.658Z,63.03
2019-03-17T16:02:50.769Z,62.63
2019-03-17T16:05:20.353Z,62.18
2019-03-17T16:07:49.939Z,62.23
2019-03-17T16:10:20.334Z,62.54
2019-03-17T16:12:50.055Z,62.58
2019-03-17T16:15:19.575Z,61.71
2019-03-17T16:17:48.956Z,61.93
2019-03-17T16:20:20.074Z,61.23
2019-03-17T16:22:49.653Z,61.63
2019-03-17T16:25:19.082Z,61.40
2019-03-17T16:27:48.303Z,61.22
2019-03-17T16:30:19.759Z,60.95
2019-03-17T16:32:49.350Z,61.51
2019-03-17T16:35:18.912Z,61.76
2019-03-17T16:37:48.797Z,61.76
2019-03-17T16:40:19.625Z,61.89
2019-03-17T16:42:48.777Z,62.47
2019-03-17T16:45:18.055Z,62.32
2019-03-17T16:47:47.336Z,62.32
2019-03-17T16:50:16.921Z,62.39
2019-03-17T16:52:46.389Z,63.57
2019-03-17T16:55:16.328Z,62.90
2019-03-17T16:57:45.757Z,62.53
2019-03-17T17:00:19.126Z,63.05
2019-03-17T17:02:48.123Z,63.43
2019-03-17T17:05:17.538Z,63.33
2019-03-17T17:07:47.225Z,63.47
2019-03-17T17:10:17.594Z,64.00
2019-03-17T17:12:46.776Z,63.56
2019-03-17T17:15:17.999Z,64.88
2019-03-17T17:17:47.158Z,64.21
2019-03-17T17:20:18.561Z,64.47
2019-03-17T17:22:47.797Z,64.19
2019-03-17T17:25:16.969Z,64.99
2019-03-17T17:27:46.137Z,64.90
2019-03-17T17:30:16.212Z,64.53
2019-03-17T17:32:45.767Z,64.57
2019-03-17T17:35:15.362Z,64.92
2019-03-17T17:37:44.571Z,63.78
2019-03-17T17:40:15.357Z,63.72
2019-03-17T17:42:44.859Z,64.21
2019-03-17T17:45:15.383Z,64.46
2019-03-17T17:47:44.586Z,64.00
2019-03-17T17:50:15.527Z,65.36
2019-03-17T17:52:44.882Z,63.01
2019-03-17T17:55:14.676Z,63.52
2019-03-17T17:57:44.146Z,63.57
2019-03-17T18:00:17.576Z,64.35
2019-03-17T18:02:46.992Z,64.77
2019-03-17T18:05:16.489Z,64.98
2019-03-17T18:07:46.384Z,64.75
2019-03-17T18:10:19.058Z,65.63
2019-03-17T18:12:48.892Z,66.30
2019-03-17T18:15:21.108Z,66.51
2019-03-17T18:17:51.023Z,66.86
2019-03-17T18:20:20.764Z,67.40
2019-03-17T18:22:50.043Z,67.63
2019-03-17T18:25:19.290Z,67.96
2019-03-17T18:27:48.468Z,67.98
2019-03-17T18:30:18.277Z,68.24
2019-03-17T18:32:47.493Z,68.95
2019-03-17T18:35:17.173Z,69.25
2019-03-17T18:37:46.519Z,70.11
2019-03-17T18:40:18.937Z,70.41
2019-03-17T18:42:48.294Z,70.26
2019-03-17T18:45:18.763Z,70.97
2019-03-17T18:47:48.411Z,70.46
2019-03-17T18:50:21.026Z,70.34
2019-03-17T18:52:50.913Z,70.17
2019-03-17T18:55:20.959Z,70.19
2019-03-17T18:57:50.529Z,69.72
2019-03-17T19:00:20.751Z,69.60
2019-03-17T19:02:50.371Z,69.61
2019-03-17T19:05:20.583Z,69.53
2019-03-17T19:07:50.028Z,69.55
2019-03-17T19:10:19.568Z,70.09
2019-03-17T19:12:49.406Z,69.79
2019-03-17T19:15:18.861Z,68.86
2019-03-17T19:17:48.099Z,68.82
2019-03-17T19:20:17.452Z,69.60
2019-03-17T19:22:47.173Z,69.31
2019-03-17T19:25:16.723Z,69.52
2019-03-17T19:27:49.738Z,69.31
2019-03-17T19:30:19.846Z,69.41
2019-03-17T19:32:49.421Z,69.45
2019-03-17T19:35:19.166Z,69.77
2019-03-17T19:37:49.197Z,69.47
2019-03-17T19:40:19.177Z,69.21
2019-03-17T19:42:58.041Z,69.46
2019-03-17T19:45:20.086Z,69.77
2019-03-17T19:47:49.703Z,69.42
2019-03-17T19:50:19.707Z,69.58
2019-03-17T19:52:49.249Z,69.21
2019-03-17T19:55:18.797Z,69.51
2019-03-17T19:57:48.679Z,69.87
2019-03-17T20:00:19.360Z,70.15
2019-03-17T20:02:49.009Z,70.07
2019-03-17T20:05:18.337Z,69.80
2019-03-17T20:07:47.990Z,69.80
2019-03-17T20:10:20.081Z,69.41
2019-03-17T20:12:49.348Z,69.68
2019-03-17T20:15:18.758Z,69.85
2019-03-17T20:17:48.042Z,69.70
2019-03-17T20:20:17.467Z,69.66
2019-03-17T20:22:46.686Z,69.08
2019-03-17T20:25:16.006Z,69.63
2019-03-17T20:27:48.772Z,69.37
2019-03-17T20:30:18.360Z,69.44
2019-03-17T20:32:47.825Z,68.73
2019-03-17T20:35:17.120Z,69.03
2019-03-17T20:38:07.350Z,68.28
2019-03-17T20:40:36.682Z,68.08
2019-03-17T20:43:18.661Z,68.87
2019-03-17T20:45:37.061Z,67.87
2019-03-17T20:48:06.550Z,68.72
2019-03-17T20:50:35.999Z,68.50
2019-03-17T20:53:06.073Z,68.38
2019-03-17T20:55:35.818Z,68.36
2019-03-17T20:58:05.513Z,68.43
2019-03-17T21:00:35.149Z,67.76
2019-03-17T21:03:04.759Z,67.92
2019-03-17T21:05:34.031Z,68.54
2019-03-17T21:08:03.605Z,68.83
2019-03-17T21:10:33.589Z,68.70
2019-03-17T21:13:03.003Z,68.68
2019-03-17T21:15:32.591Z,68.53
2019-03-17T21:18:01.878Z,68.31
2019-03-17T21:20:31.232Z,68.46
2019-03-17T21:23:00.422Z,69.18
2019-03-17T21:25:29.689Z,69.35
2019-03-17T21:27:59.059Z,69.20
2019-03-17T21:30:28.483Z,69.14
2019-03-17T21:32:58.303Z,69.60
2019-03-17T21:35:27.849Z,69.50
2019-03-17T21:37:57.359Z,69.52
2019-03-17T21:40:26.563Z,69.82
2019-03-17T21:42:55.707Z,69.89
2019-03-17T21:45:27.369Z,70.30
2019-03-17T21:47:55.827Z,69.99
2019-03-17T21:50:25.069Z,69.76
2019-03-17T21:52:54.259Z,69.32
2019-03-17T21:55:23.450Z,70.08
2019-03-17T21:57:52.707Z,70.25
2019-03-17T22:00:22.216Z,69.98
2019-03-17T22:02:54.627Z,69.36
2019-03-17T22:05:22.399Z,69.85
2019-03-17T22:07:51.696Z,69.20
2019-03-17T22:10:20.944Z,69.54
2019-03-17T22:12:50.340Z,69.54
2019-03-17T22:15:19.596Z,69.86
2019-03-17T22:17:48.759Z,69.78
2019-03-17T22:20:17.946Z,69.98
2019-03-17T22:22:47.107Z,70.05
2019-03-17T22:25:16.297Z,69.67
2019-03-17T22:27:45.441Z,69.85
2019-03-17T22:30:17.174Z,69.50
2019-03-17T22:32:46.301Z,69.47
2019-03-17T22:35:15.450Z,69.22
2019-03-17T22:37:44.696Z,69.52
2019-03-17T22:40:17.056Z,69.20
2019-03-17T22:42:46.374Z,69.48
2019-03-17T22:45:15.953Z,69.82
2019-03-17T22:47:45.136Z,70.12
2019-03-17T22:50:14.814Z,69.93
2019-03-17T22:52:43.964Z,70.28
2019-03-17T22:55:13.160Z,70.22
2019-03-17T22:57:42.303Z,69.85
2019-03-17T23:00:16.108Z,70.06
2019-03-17T23:02:45.253Z,70.10
2019-03-17T23:05:14.480Z,69.36
2019-03-17T23:07:43.650Z,69.81
2019-03-17T23:10:12.846Z,69.63
2019-03-17T23:12:42.018Z,70.16
2019-03-17T23:15:11.299Z,70.17
2019-03-17T23:17:40.727Z,69.89
2019-03-17T23:20:10.167Z,70.11
2019-03-17T23:22:39.325Z,70.35
2019-03-17T23:25:08.804Z,70.50
2019-03-17T23:27:37.947Z,70.35
2019-03-17T23:30:08.181Z,70.48
2019-03-17T23:32:37.332Z,70.74
2019-03-17T23:35:06.618Z,70.29
2019-03-17T23:37:37.639Z,70.64
2019-03-17T23:40:09.550Z,70.51
2019-03-17T23:42:38.168Z,70.94
2019-03-17T23:45:07.800Z,70.81
2019-03-17T23:47:37.016Z,70.40
2019-03-17T23:50:06.534Z,70.22
2019-03-17T23:52:35.782Z,70.28
2019-03-17T23:55:05.070Z,70.53
2019-03-17T23:57:34.198Z,70.88
